This is the latest recevied weather packets stored in our database for station/object DH1NAI-6. If no packets are shown the sender has not sent any weather packets the latest 10 day(s).
| Time | Temp. | Humidity | Pressure | Rain* | Wind** | Luminosity | Snow |
|---|---|---|---|---|---|---|---|
| 1778339536 | 15° C | 73% | 1014.7 hPa | 0 mm | - | 53 W/m² | - |
| 1778338912 | 15.56° C | 73% | 1014.5 hPa | 0 mm | - | 43 W/m² | - |
| 1778338304 | 15.56° C | 70% | 1014.6 hPa | 0 mm | - | 125 W/m² | - |
| 1778337691 | 16.11° C | 71% | 1014.7 hPa | 0 mm | - | 150 W/m² | - |
| 1778337088 | 16.11° C | 70% | 1014.7 hPa | 0 mm | - | 44 W/m² | - |
| 1778336479 | 16.67° C | 69% | 1014.8 hPa | 0 mm | - | 176 W/m² | - |
| 1778335872 | 16.11° C | 69% | 1015.1 hPa | 0 mm | - | 157 W/m² | - |
| 1778335263 | 15.56° C | 72% | 1015.1 hPa | 0 mm | - | 185 W/m² | - |
| 1778334656 | 16.11° C | 69% | 1015.1 hPa | 0 mm | - | 43 W/m² | - |
| 1778334032 | 16.11° C | 68% | 1015.2 hPa | 0 mm | - | 175 W/m² | - |
| 1778333424 | 15° C | 73% | 1015.3 hPa | 0 mm | - | 65 W/m² | - |
| 1778332816 | 15° C | 73% | 1015.3 hPa | 0 mm | - | 56 W/m² | - |
| 1778332207 | 15° C | 72% | 1015.4 hPa | 0 mm | - | 55 W/m² | - |
| 1778331600 | 15° C | 72% | 1015.6 hPa | 0 mm | - | 50 W/m² | - |
| 1778330992 | 16.11° C | 73% | 1015.6 hPa | 0 mm | - | 205 W/m² | - |
| 1778330384 | 15° C | 73% | 1015.7 hPa | 0 mm | - | 56 W/m² | - |
| 1778329772 | 15° C | 73% | 1015.9 hPa | 0 mm | - | 50 W/m² | - |
| 1778329168 | 16.11° C | 71% | 1015.8 hPa | 0 mm | - | 230 W/m² | - |
| 1778328560 | 15° C | 72% | 1015.9 hPa | 0 mm | - | 241 W/m² | - |
| 1778327936 | 14.44° C | 74% | 1016 hPa | 0 mm | - | 249 W/m² | - |
| 1778327312 | 14.44° C | 75% | 1015.9 hPa | 0 mm | - | 75 W/m² | - |
| 1778326704 | 14.44° C | 76% | 1016 hPa | 0 mm | - | 79 W/m² | - |
| 1778326081 | 14.44° C | 74% | 1015.9 hPa | 0 mm | - | 65 W/m² | - |
| 1778325456 | 14.44° C | 74% | 1016 hPa | 0 mm | - | 59 W/m² | - |
| 1778324848 | 15° C | 75% | 1016 hPa | 0 mm | - | 98 W/m² | - |
* Rain latest hour (hover to see other rain measurements)
** Current wind speed in m/s (hover to see current wind gust speed)